createdAt,value
2019-06-26T00:02:56.816Z,56.77
2019-06-26T00:05:52.346Z,56.57
2019-06-26T00:08:43.970Z,56.68
2019-06-26T00:11:40.336Z,56.81
2019-06-26T00:14:39.134Z,57.01
2019-06-26T00:17:33.743Z,57.38
2019-06-26T00:20:29.531Z,57.57
2019-06-26T00:23:21.150Z,57.93
2019-06-26T00:26:36.293Z,58.22
2019-06-26T00:29:39.608Z,58.38
2019-06-26T00:32:43.952Z,58.65
2019-06-26T00:35:45.545Z,58.54
2019-06-26T00:38:42.102Z,58.52
2019-06-26T00:41:29.151Z,58.35
2019-06-26T00:44:21.356Z,58.28
2019-06-26T00:47:24.500Z,58.30
2019-06-26T00:50:27.290Z,58.27
2019-06-26T00:53:19.574Z,58.33
2019-06-26T00:56:22.238Z,58.48
2019-06-26T00:59:15.828Z,58.64
2019-06-26T01:02:10.388Z,58.71
2019-06-26T01:05:07.376Z,58.77
2019-06-26T01:08:16.655Z,58.81
2019-06-26T01:11:40.704Z,58.89
2019-06-26T01:14:32.280Z,58.93
2019-06-26T01:17:26.971Z,59.10
2019-06-26T01:20:19.073Z,59.20
2019-06-26T01:23:15.958Z,58.86
2019-06-26T01:26:25.346Z,58.86
2019-06-26T01:29:20.271Z,58.93
2019-06-26T01:32:21.401Z,58.84
2019-06-26T01:35:13.681Z,58.83
2019-06-26T01:38:13.072Z,58.90
2019-06-26T01:41:24.350Z,58.73
2019-06-26T01:44:20.687Z,58.69
2019-06-26T01:47:10.546Z,58.79
2019-06-26T01:50:06.345Z,58.72
2019-06-26T01:53:04.126Z,58.78
2019-06-26T01:55:59.589Z,58.71
2019-06-26T01:59:08.330Z,58.73
2019-06-26T02:02:14.337Z,58.68
2019-06-26T02:05:13.168Z,58.62
2019-06-26T02:08:25.007Z,58.69
2019-06-26T02:11:29.574Z,58.82
2019-06-26T02:14:30.435Z,58.92
2019-06-26T02:17:29.989Z,59.02
2019-06-26T02:20:28.863Z,59.27
2019-06-26T02:23:30.956Z,59.38
2019-06-26T02:26:35.563Z,59.50
2019-06-26T02:29:38.058Z,59.54
2019-06-26T02:32:39.309Z,59.71
2019-06-26T02:35:30.988Z,59.87
2019-06-26T02:38:21.186Z,60.00
2019-06-26T02:41:19.462Z,60.16
2019-06-26T02:44:19.483Z,60.37
2019-06-26T02:47:21.057Z,60.41
2019-06-26T02:50:34.247Z,60.63
2019-06-26T02:53:29.513Z,60.70
2019-06-26T02:56:31.648Z,60.72
2019-06-26T02:59:25.063Z,60.88
2019-06-26T03:02:21.661Z,61.04
2019-06-26T03:05:20.145Z,61.02
2019-06-26T03:08:29.948Z,61.23
2019-06-26T03:11:22.994Z,61.31
2019-06-26T03:14:21.857Z,61.33
2019-06-26T03:17:14.408Z,61.41
2019-06-26T03:20:29.540Z,61.64
2019-06-26T03:23:39.808Z,62.04
2019-06-26T03:26:33.906Z,62.29
2019-06-26T03:29:35.020Z,62.27
2019-06-26T03:32:38.286Z,62.38
2019-06-26T03:35:40.627Z,62.48
2019-06-26T03:38:34.864Z,62.63
2019-06-26T03:41:26.343Z,62.71
2019-06-26T03:44:24.292Z,62.79
2019-06-26T03:47:37.780Z,62.91
2019-06-26T03:50:43.012Z,62.92
2019-06-26T03:53:48.968Z,63.02
2019-06-26T03:56:44.787Z,62.94
2019-06-26T03:59:54.454Z,63.10
2019-06-26T04:02:40.235Z,63.12
2019-06-26T04:05:57.477Z,63.36
2019-06-26T04:09:01.457Z,63.35
2019-06-26T04:12:06.692Z,63.40
2019-06-26T04:15:14.498Z,63.32
2019-06-26T04:18:13.072Z,63.18
2019-06-26T04:21:17.706Z,62.96
2019-06-26T04:24:16.895Z,62.75
2019-06-26T04:27:05.182Z,62.55
2019-06-26T04:29:54.701Z,62.26
2019-06-26T04:32:46.887Z,62.18
2019-06-26T04:35:49.545Z,61.52
2019-06-26T04:39:23.122Z,61.28
2019-06-26T04:42:19.700Z,60.82
2019-06-26T04:45:13.145Z,60.71
2019-06-26T04:48:11.659Z,60.73
2019-06-26T04:51:10.202Z,60.69
2019-06-26T04:54:04.647Z,60.35
2019-06-26T04:56:58.224Z,60.21
2019-06-26T04:59:54.445Z,59.92
2019-06-26T05:02:59.427Z,60.16
2019-06-26T05:05:53.309Z,60.04
2019-06-26T05:08:48.993Z,59.92
2019-06-26T05:11:53.898Z,59.51
2019-06-26T05:15:09.311Z,59.77
2019-06-26T05:18:32.692Z,59.87
2019-06-26T05:21:26.148Z,59.28
2019-06-26T05:24:21.650Z,58.87
2019-06-26T05:27:12.748Z,58.38
2019-06-26T05:30:20.318Z,57.46
2019-06-26T05:33:25.259Z,56.64
2019-06-26T05:36:19.472Z,56.83
2019-06-26T05:39:29.388Z,56.29
2019-06-26T05:42:34.545Z,56.30
2019-06-26T05:45:37.613Z,55.98
2019-06-26T05:48:44.090Z,55.93
2019-06-26T05:51:51.407Z,55.79
2019-06-26T05:54:47.407Z,55.45
2019-06-26T06:00:48.065Z,54.64
2019-06-26T06:03:49.871Z,54.88
2019-06-26T06:06:49.557Z,55.00
2019-06-26T06:09:39.647Z,55.04
2019-06-26T06:12:34.006Z,54.68
2019-06-26T06:15:28.741Z,54.75
2019-06-26T06:18:28.140Z,54.88
2019-06-26T06:21:52.250Z,54.65
2019-06-26T06:24:46.544Z,54.55
2019-06-26T06:27:39.272Z,54.65
2019-06-26T06:30:34.039Z,54.13
2019-06-26T06:33:37.287Z,54.41
2019-06-26T06:36:35.525Z,53.79
2019-06-26T06:39:26.575Z,53.39
2019-06-26T06:42:43.981Z,53.69
2019-06-26T06:45:33.456Z,53.39
2019-06-26T06:48:38.798Z,53.22
2019-06-26T06:51:43.371Z,53.37
2019-06-26T06:54:46.167Z,53.69
2019-06-26T06:57:37.914Z,53.44
2019-06-26T07:00:29.270Z,53.19
2019-06-26T07:03:30.132Z,52.60
2019-06-26T07:06:38.886Z,53.05
2019-06-26T07:09:40.654Z,53.10
2019-06-26T07:12:42.261Z,52.76
2019-06-26T07:19:11.026Z,51.85
2019-06-26T07:22:16.325Z,50.68
2019-06-26T07:25:16.444Z,50.65
2019-06-26T07:28:07.593Z,50.11
2019-06-26T07:30:57.604Z,50.46
2019-06-26T07:33:55.394Z,50.56
2019-06-26T07:36:49.396Z,50.53
2019-06-26T07:39:46.503Z,50.23
2019-06-26T07:42:36.792Z,50.05
2019-06-26T07:45:27.464Z,50.52
2019-06-26T07:48:19.964Z,49.53
2019-06-26T07:51:07.872Z,49.76
2019-06-26T07:54:05.479Z,49.25
2019-06-26T07:57:00.813Z,49.69
2019-06-26T07:59:59.700Z,49.84
2019-06-26T08:03:04.077Z,49.48
2019-06-26T08:05:56.462Z,49.25
2019-06-26T08:08:47.908Z,50.30
2019-06-26T08:11:37.625Z,50.01
2019-06-26T08:14:27.734Z,49.68
2019-06-26T08:17:23.944Z,49.74
2019-06-26T08:20:30.673Z,49.70
2019-06-26T08:23:33.835Z,49.42
2019-06-26T08:26:25.185Z,49.49
2019-06-26T08:29:19.113Z,49.19
2019-06-26T08:32:27.709Z,49.16
2019-06-26T08:35:34.621Z,49.54
2019-06-26T08:38:35.533Z,48.84
2019-06-26T08:41:30.945Z,48.32
2019-06-26T08:44:30.270Z,48.59
2019-06-26T08:47:24.432Z,49.48
2019-06-26T08:50:16.800Z,48.80
2019-06-26T08:53:09.783Z,48.68
2019-06-26T08:56:09.925Z,48.33
2019-06-26T08:59:08.075Z,47.55
2019-06-26T09:02:07.112Z,47.67
2019-06-26T09:05:02.524Z,47.89
2019-06-26T09:07:53.459Z,47.50
2019-06-26T09:10:56.658Z,46.80
2019-06-26T09:13:48.048Z,47.17
2019-06-26T09:16:45.811Z,46.77
2019-06-26T09:19:39.379Z,46.68
2019-06-26T09:22:29.700Z,47.20
2019-06-26T09:25:27.938Z,45.57
2019-06-26T09:28:35.879Z,45.06
2019-06-26T09:31:30.968Z,45.93
2019-06-26T09:34:36.912Z,46.31
2019-06-26T09:37:39.408Z,46.00
2019-06-26T09:40:44.418Z,44.83
2019-06-26T09:43:36.882Z,44.42
2019-06-26T09:46:45.237Z,44.96
2019-06-26T09:49:34.904Z,44.90
2019-06-26T09:52:28.115Z,44.26
2019-06-26T09:55:35.569Z,44.34
2019-06-26T09:58:32.570Z,44.58
2019-06-26T10:01:40.610Z,44.62
2019-06-26T10:04:40.747Z,43.81
2019-06-26T10:07:51.458Z,43.52
2019-06-26T10:10:46.924Z,44.29
2019-06-26T10:13:52.738Z,44.08
2019-06-26T10:16:50.402Z,43.10
2019-06-26T10:19:45.257Z,42.83
2019-06-26T10:22:47.708Z,42.34
2019-06-26T10:25:45.823Z,42.62
2019-06-26T10:28:54.389Z,42.22
2019-06-26T10:31:55.652Z,41.73
2019-06-26T10:35:09.335Z,41.99
2019-06-26T10:38:06.278Z,40.72
2019-06-26T10:41:04.911Z,39.78
2019-06-26T10:44:04.547Z,40.00
2019-06-26T10:47:01.652Z,39.25
2019-06-26T10:50:07.770Z,38.60
2019-06-26T10:52:59.634Z,38.01
2019-06-26T10:55:56.760Z,34.59
2019-06-26T10:58:54.452Z,33.76
2019-06-26T11:01:55.333Z,34.40
2019-06-26T11:04:49.866Z,33.09
2019-06-26T11:07:55.618Z,32.91
2019-06-26T11:10:58.220Z,34.32
2019-06-26T11:14:11.078Z,34.40
2019-06-26T11:17:12.389Z,34.65
2019-06-26T11:20:04.109Z,34.80
2019-06-26T11:22:55.519Z,32.25
2019-06-26T11:25:48.267Z,32.36
2019-06-26T11:28:45.605Z,32.04
2019-06-26T11:31:36.940Z,32.58
2019-06-26T11:34:34.033Z,31.78
2019-06-26T11:37:25.853Z,30.96
2019-06-26T11:40:21.174Z,32.67
2019-06-26T11:43:14.182Z,31.99
2019-06-26T11:46:24.480Z,31.27
2019-06-26T11:49:26.466Z,29.92
2019-06-26T11:52:44.274Z,29.45
2019-06-26T11:55:55.096Z,31.44
2019-06-26T11:58:49.199Z,31.13
2019-06-26T12:02:02.858Z,32.23
2019-06-26T12:05:11.604Z,33.57
2019-06-26T12:08:18.304Z,32.27
2019-06-26T12:11:18.465Z,32.33
2019-06-26T12:14:28.504Z,31.21
2019-06-26T12:17:30.102Z,31.69
2019-06-26T12:20:27.154Z,32.22
2019-06-26T12:23:30.262Z,32.99
2019-06-26T12:26:30.449Z,33.09
2019-06-26T12:29:28.243Z,32.52
2019-06-26T12:32:23.539Z,32.65
2019-06-26T12:35:19.306Z,32.71
2019-06-26T12:38:36.100Z,33.20
2019-06-26T12:41:37.439Z,32.43
2019-06-26T12:44:39.396Z,31.04
2019-06-26T12:47:39.615Z,30.89
2019-06-26T12:50:36.032Z,30.80
2019-06-26T12:53:50.232Z,30.62
2019-06-26T12:56:48.462Z,30.14
2019-06-26T12:59:57.343Z,30.56
2019-06-26T13:02:31.556Z,31.03
2019-06-26T13:05:35.704Z,31.53
2019-06-26T13:08:33.678Z,31.37
2019-06-26T13:11:35.439Z,32.26
2019-06-26T13:14:45.587Z,32.26
2019-06-26T13:17:45.543Z,32.63
2019-06-26T13:20:59.468Z,33.55
2019-06-26T13:24:07.162Z,32.72
2019-06-26T13:26:56.455Z,31.50
2019-06-26T13:29:58.565Z,31.86
2019-06-26T13:32:54.500Z,31.02
2019-06-26T13:35:52.511Z,30.72
2019-06-26T13:38:46.169Z,30.57
2019-06-26T13:41:47.603Z,30.23
2019-06-26T13:44:43.980Z,31.44
2019-06-26T13:47:39.594Z,32.13
2019-06-26T13:50:43.257Z,30.38
2019-06-26T13:53:36.051Z,29.92
2019-06-26T13:56:37.183Z,29.84
2019-06-26T13:59:30.970Z,30.31
2019-06-26T14:02:41.060Z,30.15
2019-06-26T14:05:30.219Z,30.60
2019-06-26T14:08:26.686Z,30.95
2019-06-26T14:11:34.597Z,31.07
2019-06-26T14:14:20.507Z,30.72
2019-06-26T14:17:16.668Z,30.45
2019-06-26T14:20:20.803Z,30.72
2019-06-26T14:23:13.750Z,30.10
2019-06-26T14:26:17.257Z,31.10
2019-06-26T14:29:21.256Z,31.31
2019-06-26T14:32:31.298Z,32.27
2019-06-26T14:35:37.059Z,31.93
2019-06-26T14:38:24.735Z,33.02
2019-06-26T14:41:26.866Z,32.05
2019-06-26T14:44:33.430Z,31.47
2019-06-26T14:47:41.084Z,32.36
2019-06-26T14:50:44.914Z,32.96
2019-06-26T14:53:46.484Z,33.47
2019-06-26T14:56:42.379Z,32.63
2019-06-26T14:59:46.693Z,32.84
2019-06-26T15:02:47.468Z,34.16
2019-06-26T15:05:54.249Z,34.39
2019-06-26T15:08:49.927Z,34.86
2019-06-26T15:11:41.760Z,35.13
2019-06-26T15:14:36.809Z,36.09
2019-06-26T15:17:29.779Z,36.19
2019-06-26T15:20:24.694Z,36.61
2019-06-26T15:23:16.273Z,35.88
2019-06-26T15:26:12.633Z,34.38
2019-06-26T15:29:18.747Z,34.17
2019-06-26T15:32:09.613Z,33.58
2019-06-26T15:35:08.096Z,32.75
2019-06-26T15:38:06.880Z,32.50
2019-06-26T15:41:11.119Z,31.68
2019-06-26T15:44:11.969Z,32.43
2019-06-26T15:47:14.633Z,32.04
2019-06-26T15:50:00.290Z,31.77
2019-06-26T15:53:05.157Z,31.60
2019-06-26T15:56:03.133Z,30.96
2019-06-26T15:58:57.499Z,30.09
2019-06-26T16:01:50.087Z,30.75
2019-06-26T16:05:02.762Z,29.68
2019-06-26T16:08:18.763Z,30.46
2019-06-26T16:11:17.007Z,30.72
2019-06-26T16:14:19.470Z,30.05
2019-06-26T16:17:51.078Z,29.70
2019-06-26T16:24:04.205Z,29.89
2019-06-26T16:27:14.719Z,30.57
2019-06-26T16:30:09.428Z,30.95
2019-06-26T16:33:09.126Z,31.59
2019-06-26T16:36:11.588Z,31.73
2019-06-26T16:39:10.584Z,31.41
2019-06-26T16:42:12.674Z,31.72
2019-06-26T16:45:09.518Z,32.47
2019-06-26T16:47:57.501Z,32.29
2019-06-26T16:50:49.327Z,30.08
2019-06-26T16:53:39.945Z,29.73
2019-06-26T16:56:40.143Z,29.77
2019-06-26T16:59:47.524Z,30.37
2019-06-26T17:02:35.918Z,29.19
2019-06-26T17:05:35.022Z,29.10
2019-06-26T17:08:34.712Z,29.91
2019-06-26T17:11:57.312Z,31.02
2019-06-26T17:15:08.708Z,31.57
2019-06-26T17:18:10.668Z,30.54
2019-06-26T17:21:16.189Z,29.16
2019-06-26T17:24:02.970Z,29.34
2019-06-26T17:27:06.914Z,30.07
2019-06-26T17:30:02.089Z,29.33
2019-06-26T17:33:14.871Z,29.84
2019-06-26T17:36:07.913Z,30.96
2019-06-26T17:39:08.003Z,32.53
2019-06-26T17:42:02.222Z,34.49
2019-06-26T17:44:53.646Z,34.25
2019-06-26T17:47:48.043Z,35.29
2019-06-26T17:50:40.356Z,36.79
2019-06-26T17:53:42.158Z,36.28
2019-06-26T17:56:39.077Z,36.11
2019-06-26T17:59:51.932Z,36.41
2019-06-26T18:02:45.297Z,35.09
2019-06-26T18:05:38.584Z,33.34
2019-06-26T18:08:46.230Z,32.16
2019-06-26T18:12:01.097Z,31.91
2019-06-26T18:15:05.352Z,31.96
2019-06-26T18:18:08.541Z,31.25
2019-06-26T18:21:00.736Z,30.39
2019-06-26T18:24:00.384Z,31.18
2019-06-26T18:26:56.819Z,31.57
2019-06-26T18:30:01.122Z,31.67
2019-06-26T18:32:54.364Z,31.80
2019-06-26T18:35:47.675Z,32.31
2019-06-26T18:38:40.975Z,32.76
2019-06-26T18:41:38.889Z,32.68
2019-06-26T18:44:25.431Z,33.30
2019-06-26T18:47:26.250Z,36.06
2019-06-26T18:50:22.008Z,36.42
2019-06-26T18:53:22.759Z,36.81
2019-06-26T18:56:16.517Z,37.21
2019-06-26T18:59:17.238Z,38.08
2019-06-26T19:02:14.578Z,38.97
2019-06-26T19:07:43.404Z,42.15
2019-06-26T19:10:35.956Z,43.01
2019-06-26T19:13:35.329Z,44.05
2019-06-26T19:16:31.515Z,45.85
2019-06-26T19:19:22.717Z,46.62
2019-06-26T19:22:21.980Z,47.50
2019-06-26T19:25:23.289Z,48.48
2019-06-26T19:28:22.942Z,49.62
2019-06-26T19:31:07.566Z,50.92
2019-06-26T19:34:10.809Z,52.03
2019-06-26T19:37:12.764Z,52.71
2019-06-26T19:40:16.211Z,52.36
2019-06-26T19:43:16.367Z,51.70
2019-06-26T19:46:03.871Z,51.79
2019-06-26T19:48:57.703Z,53.24
2019-06-26T19:51:59.588Z,54.52
2019-06-26T19:54:45.411Z,55.58
2019-06-26T19:57:38.550Z,56.82
2019-06-26T20:00:33.046Z,57.44
2019-06-26T20:03:28.587Z,57.86
2019-06-26T20:06:20.181Z,57.52
2019-06-26T20:09:26.875Z,57.55
2019-06-26T20:12:19.477Z,57.99
2019-06-26T20:15:14.300Z,58.24
2019-06-26T20:18:08.369Z,58.76
2019-06-26T20:21:03.664Z,59.72
2019-06-26T20:24:06.107Z,59.89
2019-06-26T20:26:58.563Z,60.39
2019-06-26T20:30:11.934Z,60.85
2019-06-26T20:33:10.466Z,61.12
2019-06-26T20:36:09.060Z,61.46
2019-06-26T20:39:03.170Z,61.72
2019-06-26T20:41:59.014Z,62.29
2019-06-26T20:44:56.359Z,62.53
2019-06-26T20:47:55.328Z,62.70
2019-06-26T20:50:51.944Z,63.07
2019-06-26T20:53:45.087Z,63.10
2019-06-26T20:56:47.991Z,63.03
2019-06-26T20:59:41.688Z,62.55
2019-06-26T21:02:40.530Z,63.77
2019-06-26T21:06:04.422Z,63.19
2019-06-26T21:08:49.922Z,64.22
2019-06-26T21:12:00.146Z,64.66
2019-06-26T21:15:03.914Z,65.48
2019-06-26T21:18:22.520Z,65.55
2019-06-26T21:21:19.898Z,65.66
2019-06-26T21:24:25.460Z,65.79
2019-06-26T21:27:27.148Z,66.27
2019-06-26T21:30:33.290Z,66.46
2019-06-26T21:33:26.600Z,66.66
2019-06-26T21:36:37.610Z,66.89
2019-06-26T21:39:37.376Z,66.62
2019-06-26T21:42:43.975Z,67.03
2019-06-26T21:45:54.508Z,66.82
2019-06-26T21:48:50.803Z,66.97
2019-06-26T21:52:02.650Z,67.12
2019-06-26T21:55:02.920Z,67.28
2019-06-26T21:57:57.166Z,67.70
2019-06-26T22:00:52.692Z,68.09
2019-06-26T22:03:48.410Z,68.73
2019-06-26T22:06:38.522Z,68.90
2019-06-26T22:09:39.069Z,69.40
2019-06-26T22:12:31.599Z,69.68
2019-06-26T22:15:45.556Z,69.64
2019-06-26T22:18:54.388Z,69.94
2019-06-26T22:21:56.536Z,70.36
2019-06-26T22:24:55.480Z,70.38
2019-06-26T22:27:56.824Z,70.31
2019-06-26T22:30:47.754Z,70.12
2019-06-26T22:33:42.137Z,69.53
2019-06-26T22:36:51.068Z,70.18
2019-06-26T22:39:50.847Z,70.01
2019-06-26T22:42:53.068Z,70.18
2019-06-26T22:45:55.479Z,70.80
2019-06-26T22:49:05.260Z,70.78
2019-06-26T22:52:04.846Z,71.13
2019-06-26T22:55:06.042Z,70.74
2019-06-26T22:58:09.648Z,70.79
2019-06-26T23:01:23.974Z,70.62
2019-06-26T23:04:12.018Z,70.40
2019-06-26T23:07:17.879Z,70.30
2019-06-26T23:10:12.235Z,70.67
2019-06-26T23:13:03.776Z,70.70
2019-06-26T23:16:03.765Z,70.44
2019-06-26T23:19:21.926Z,70.37
2019-06-26T23:22:24.608Z,69.98
2019-06-26T23:25:17.769Z,70.01
2019-06-26T23:28:15.581Z,70.39
2019-06-26T23:31:20.557Z,69.94
2019-06-26T23:34:23.702Z,69.55
2019-06-26T23:37:28.991Z,69.13
2019-06-26T23:40:27.042Z,69.26
2019-06-26T23:43:18.356Z,69.37
2019-06-26T23:46:09.027Z,69.48
2019-06-26T23:49:18.781Z,69.81
2019-06-26T23:52:16.757Z,69.78
2019-06-26T23:55:06.878Z,69.60
2019-06-26T23:58:11.208Z,70.04
